Aviation Digital Data Service (ADDS)

Output produced by METARs form (1522 UTC 20 March 2019)
found at http://www.aviationweather.gov/metar/data/
 
METAR text: KRIC 201454Z 07011KT 10SM FEW080 FEW300 09/M04 A3037 RMK AO2 SLP291 T00941039 50002
Conditions at: KRIC (RICHMOND , VA, US) observed 1454 UTC 20 March 2019
Temperature: 9.4°C (49°F)
Dewpoint: -3.9°C (25°F) [RH = 39%]
Pressure (altimeter): 30.37 inches Hg (1028.5 mb)
[Sea-level pressure: 1029.1 mb]
Winds: from the ENE (70 degrees) at 13 MPH (11 knots; 5.7 m/s)
Visibility: 10 or more miles (16+ km)
Ceiling: at least 12,000 feet AGL
Clouds: few clouds at 8000 feet AGL
few clouds at 30000 feet AGL
Weather: no significant weather observed at this time

METAR text: KRIC 201354Z 07007KT 10SM FEW120 BKN300 07/00 A3038 RMK AO2 SLP292 T00720000
Conditions at: KRIC (RICHMOND , VA, US) observed 1354 UTC 20 March 2019
Temperature: 7.2°C (45°F)
Dewpoint: 0.0°C (32°F) [RH = 60%]
Pressure (altimeter): 30.38 inches Hg (1028.9 mb)
[Sea-level pressure: 1029.2 mb]
Winds: from the ENE (70 degrees) at 8 MPH (7 knots; 3.6 m/s)
Visibility: 10 or more miles (16+ km)
Ceiling: 30000 feet AGL
Clouds: few clouds at 12000 feet AGL
broken clouds at 30000 feet AGL
Weather: no significant weather observed at this time

METAR text: KRIC 201254Z 02005KT 10SM FEW120 BKN300 04/00 A3037 RMK AO2 SLP291 T00390000
Conditions at: KRIC (RICHMOND , VA, US) observed 1254 UTC 20 March 2019
Temperature: 3.9°C (39°F)
Dewpoint: 0.0°C (32°F) [RH = 76%]
Pressure (altimeter): 30.37 inches Hg (1028.5 mb)
[Sea-level pressure: 1029.1 mb]
Winds: from the NNE (20 degrees) at 6 MPH (5 knots; 2.6 m/s)
Visibility: 10 or more miles (16+ km)
Ceiling: 30000 feet AGL
Clouds: few clouds at 12000 feet AGL
broken clouds at 30000 feet AGL
Weather: no significant weather observed at this time

METAR text: KRIC 201154Z 02003KT 10SM FEW120 BKN300 00/M03 A3037 RMK AO2 SLP289 T00001028 10006 21011 50003
Conditions at: KRIC (RICHMOND , VA, US) observed 1154 UTC 20 March 2019
Temperature: 0.0°C (32°F)
Dewpoint: -2.8°C (27°F) [RH = 81%]
Pressure (altimeter): 30.37 inches Hg (1028.5 mb)
[Sea-level pressure: 1028.9 mb]
Winds: from the NNE (20 degrees) at 3 MPH (3 knots; 1.5 m/s)
Visibility: 10 or more miles (16+ km)
Ceiling: 30000 feet AGL
Clouds: few clouds at 12000 feet AGL
broken clouds at 30000 feet AGL
Weather: no significant weather observed at this time

METAR text: KRIC 201054Z 35003KT 10SM FEW070 SCT300 M01/M04 A3037 RMK AO2 SLP289 T10111039
Conditions at: KRIC (RICHMOND , VA, US) observed 1054 UTC 20 March 2019
Temperature: -1.1°C (30°F)
Dewpoint: -3.9°C (25°F) [RH = 81%]
Pressure (altimeter): 30.37 inches Hg (1028.5 mb)
[Sea-level pressure: 1028.9 mb]
Winds: from the N (350 degrees) at 3 MPH (3 knots; 1.5 m/s)
Visibility: 10 or more miles (16+ km)
Ceiling: at least 12,000 feet AGL
Clouds: few clouds at 7000 feet AGL
scattered clouds at 30000 feet AGL
Weather: no significant weather observed at this time

METAR text: KRIC 200954Z 00000KT 10SM CLR M01/M04 A3036 RMK AO2 SLP288 T10061039
Conditions at: KRIC (RICHMOND , VA, US) observed 0954 UTC 20 March 2019
Temperature: -0.6°C (31°F)
Dewpoint: -3.9°C (25°F) [RH = 78%]
Pressure (altimeter): 30.36 inches Hg (1028.2 mb)
[Sea-level pressure: 1028.8 mb]
Winds: calm
Visibility: 10 or more miles (16+ km)
Ceiling: at least 12,000 feet AGL
Clouds: sky clear below 12,000 feet AGL
Weather: no significant weather observed at this time

METAR text: KRIC 200854Z 00000KT 10SM CLR M01/M04 A3036 RMK AO2 SLP285 T10061039 58010
Conditions at: KRIC (RICHMOND , VA, US) observed 0854 UTC 20 March 2019
Temperature: -0.6°C (31°F)
Dewpoint: -3.9°C (25°F) [RH = 78%]
Pressure (altimeter): 30.36 inches Hg (1028.2 mb)
[Sea-level pressure: 1028.5 mb]
Winds: calm
Visibility: 10 or more miles (16+ km)
Ceiling: at least 12,000 feet AGL
Clouds: sky clear below 12,000 feet AGL
Weather: no significant weather observed at this time

METAR text: KRIC 200754Z 00000KT 10SM CLR 00/M04 A3037 RMK AO2 SLP288 T00001039
Conditions at: KRIC (RICHMOND , VA, US) observed 0754 UTC 20 March 2019
Temperature: 0.0°C (32°F)
Dewpoint: -3.9°C (25°F) [RH = 75%]
Pressure (altimeter): 30.37 inches Hg (1028.5 mb)
[Sea-level pressure: 1028.8 mb]
Winds: calm
Visibility: 10 or more miles (16+ km)
Ceiling: at least 12,000 feet AGL
Clouds: sky clear below 12,000 feet AGL
Weather: no significant weather observed at this time

METAR text: KRIC 200654Z 00000KT 10SM CLR 00/M04 A3038 RMK AO2 SLP294 T00001039
Conditions at: KRIC (RICHMOND , VA, US) observed 0654 UTC 20 March 2019
Temperature: 0.0°C (32°F)
Dewpoint: -3.9°C (25°F) [RH = 75%]
Pressure (altimeter): 30.38 inches Hg (1028.9 mb)
[Sea-level pressure: 1029.4 mb]
Winds: calm
Visibility: 10 or more miles (16+ km)
Ceiling: at least 12,000 feet AGL
Clouds: sky clear below 12,000 feet AGL
Weather: no significant weather observed at this time

METAR text: KRIC 200554Z 00000KT 10SM CLR 01/M04 A3039 RMK AO2 SLP296 T00061039 10072 20000 58006
Conditions at: KRIC (RICHMOND , VA, US) observed 0554 UTC 20 March 2019
Temperature: 0.6°C (33°F)
Dewpoint: -3.9°C (25°F) [RH = 72%]
Pressure (altimeter): 30.39 inches Hg (1029.2 mb)
[Sea-level pressure: 1029.6 mb]
Winds: calm
Visibility: 10 or more miles (16+ km)
Ceiling: at least 12,000 feet AGL
Clouds: sky clear below 12,000 feet AGL
Weather: no significant weather observed at this time

METAR text: KRIC 200454Z 00000KT 10SM CLR 01/M03 A3040 RMK AO2 SLP299 T00111033 401221033
Conditions at: KRIC (RICHMOND , VA, US) observed 0454 UTC 20 March 2019
Temperature: 1.1°C (34°F)
Dewpoint: -3.3°C (26°F) [RH = 72%]
Pressure (altimeter): 30.40 inches Hg (1029.5 mb)
[Sea-level pressure: 1029.9 mb]
Winds: calm
Visibility: 10 or more miles (16+ km)
Ceiling: at least 12,000 feet AGL
Clouds: sky clear below 12,000 feet AGL
Weather: no significant weather observed at this time

METAR text: KRIC 200354Z 00000KT 10SM CLR 02/M04 A3040 RMK AO2 SLP301 T00221039
Conditions at: KRIC (RICHMOND , VA, US) observed 0354 UTC 20 March 2019
Temperature: 2.2°C (36°F)
Dewpoint: -3.9°C (25°F) [RH = 64%]
Pressure (altimeter): 30.40 inches Hg (1029.5 mb)
[Sea-level pressure: 1030.1 mb]
Winds: calm
Visibility: 10 or more miles (16+ km)
Ceiling: at least 12,000 feet AGL
Clouds: sky clear below 12,000 feet AGL
Weather: no significant weather observed at this time

METAR text: KRIC 200254Z 00000KT 10SM CLR 04/M04 A3041 RMK AO2 SLP302 T00391044 51007
Conditions at: KRIC (RICHMOND , VA, US) observed 0254 UTC 20 March 2019
Temperature: 3.9°C (39°F)
Dewpoint: -4.4°C (24°F) [RH = 55%]
Pressure (altimeter): 30.41 inches Hg (1029.9 mb)
[Sea-level pressure: 1030.2 mb]
Winds: calm
Visibility: 10 or more miles (16+ km)
Ceiling: at least 12,000 feet AGL
Clouds: sky clear below 12,000 feet AGL
Weather: no significant weather observed at this time

METAR text: KRIC 200154Z 13006KT 10SM CLR 04/M04 A3040 RMK AO2 SLP301 T00391039
Conditions at: KRIC (RICHMOND , VA, US) observed 0154 UTC 20 March 2019
Temperature: 3.9°C (39°F)
Dewpoint: -3.9°C (25°F) [RH = 57%]
Pressure (altimeter): 30.40 inches Hg (1029.5 mb)
[Sea-level pressure: 1030.1 mb]
Winds: from the SE (130 degrees) at 7 MPH (6 knots; 3.1 m/s)
Visibility: 10 or more miles (16+ km)
Ceiling: at least 12,000 feet AGL
Clouds: sky clear below 12,000 feet AGL
Weather: no significant weather observed at this time

METAR text: KRIC 200054Z 08006KT 10SM FEW300 06/M06 A3039 RMK AO2 SLP297 T00611056
Conditions at: KRIC (RICHMOND , VA, US) observed 0054 UTC 20 March 2019
Temperature: 6.1°C (43°F)
Dewpoint: -5.6°C (22°F) [RH = 43%]
Pressure (altimeter): 30.39 inches Hg (1029.2 mb)
[Sea-level pressure: 1029.7 mb]
Winds: from the E (80 degrees) at 7 MPH (6 knots; 3.1 m/s)
Visibility: 10 or more miles (16+ km)
Ceiling: at least 12,000 feet AGL
Clouds: few clouds at 30000 feet AGL
Weather: no significant weather observed at this time

METAR text: KRIC 192354Z 08006KT 10SM FEW300 07/M06 A3039 RMK AO2 SLP295 T00721056 10122 20072 53005
Conditions at: KRIC (RICHMOND , VA, US) observed 2354 UTC 19 March 2019
Temperature: 7.2°C (45°F)
Dewpoint: -5.6°C (22°F) [RH = 40%]
Pressure (altimeter): 30.39 inches Hg (1029.2 mb)
[Sea-level pressure: 1029.5 mb]
Winds: from the E (80 degrees) at 7 MPH (6 knots; 3.1 m/s)
Visibility: 10 or more miles (16+ km)
Ceiling: at least 12,000 feet AGL
Clouds: few clouds at 30000 feet AGL
Weather: no significant weather observed at this time

METAR text: KRIC 192254Z 02005KT 10SM FEW300 10/M06 A3038 RMK AO2 SLP293 T01001061
Conditions at: KRIC (RICHMOND , VA, US) observed 2254 UTC 19 March 2019
Temperature: 10.0°C (50°F)
Dewpoint: -6.1°C (21°F) [RH = 32%]
Pressure (altimeter): 30.38 inches Hg (1028.9 mb)
[Sea-level pressure: 1029.3 mb]
Winds: from the NNE (20 degrees) at 6 MPH (5 knots; 2.6 m/s)
Visibility: 10 or more miles (16+ km)
Ceiling: at least 12,000 feet AGL
Clouds: few clouds at 30000 feet AGL
Weather: no significant weather observed at this time

METAR text: KRIC 192154Z 07005KT 10SM FEW300 11/M08 A3037 RMK AO2 SLP291 T01111078
Conditions at: KRIC (RICHMOND , VA, US) observed 2154 UTC 19 March 2019
Temperature: 11.1°C (52°F)
Dewpoint: -7.8°C (18°F) [RH = 26%]
Pressure (altimeter): 30.37 inches Hg (1028.5 mb)
[Sea-level pressure: 1029.1 mb]
Winds: from the ENE (70 degrees) at 6 MPH (5 knots; 2.6 m/s)
Visibility: 10 or more miles (16+ km)
Ceiling: at least 12,000 feet AGL
Clouds: few clouds at 30000 feet AGL
Weather: no significant weather observed at this time

METAR text: KRIC 192054Z 03007KT 10SM FEW300 12/M08 A3037 RMK AO2 SLP290 T01171078 56024
Conditions at: KRIC (RICHMOND , VA, US) observed 2054 UTC 19 March 2019
Temperature: 11.7°C (53°F)
Dewpoint: -7.8°C (18°F) [RH = 25%]
Pressure (altimeter): 30.37 inches Hg (1028.5 mb)
[Sea-level pressure: 1029.0 mb]
Winds: from the NNE (30 degrees) at 8 MPH (7 knots; 3.6 m/s)
Visibility: 10 or more miles (16+ km)
Ceiling: at least 12,000 feet AGL
Clouds: few clouds at 30000 feet AGL
Weather: no significant weather observed at this time

METAR text: KRIC 191954Z 02012KT 10SM FEW300 12/M07 A3038 RMK AO2 SLP294 T01221072
Conditions at: KRIC (RICHMOND , VA, US) observed 1954 UTC 19 March 2019
Temperature: 12.2°C (54°F)
Dewpoint: -7.2°C (19°F) [RH = 25%]
Pressure (altimeter): 30.38 inches Hg (1028.9 mb)
[Sea-level pressure: 1029.4 mb]
Winds: from the NNE (20 degrees) at 14 MPH (12 knots; 6.2 m/s)
Visibility: 10 or more miles (16+ km)
Ceiling: at least 12,000 feet AGL
Clouds: few clouds at 30000 feet AGL
Weather: no significant weather observed at this time

METAR text: KRIC 191854Z 32005KT 10SM SCT300 11/M08 A3040 RMK AO2 SLP301 T01111078
Conditions at: KRIC (RICHMOND , VA, US) observed 1854 UTC 19 March 2019
Temperature: 11.1°C (52°F)
Dewpoint: -7.8°C (18°F) [RH = 26%]
Pressure (altimeter): 30.40 inches Hg (1029.5 mb)
[Sea-level pressure: 1030.1 mb]
Winds: from the NW (320 degrees) at 6 MPH (5 knots; 2.6 m/s)
Visibility: 10 or more miles (16+ km)
Ceiling: at least 12,000 feet AGL
Clouds: scattered clouds at 30000 feet AGL
Weather: no significant weather observed at this time

METAR text: KRIC 191754Z 01009KT 10SM FEW070 SCT300 11/M07 A3044 RMK AO2 SLP314 T01061067 10106 21011 58014
Conditions at: KRIC (RICHMOND , VA, US) observed 1754 UTC 19 March 2019
Temperature: 10.6°C (51°F)
Dewpoint: -6.7°C (20°F) [RH = 29%]
Pressure (altimeter): 30.44 inches Hg (1030.9 mb)
[Sea-level pressure: 1031.4 mb]
Winds: from the N (10 degrees) at 10 MPH (9 knots; 4.6 m/s)
Visibility: 10 or more miles (16+ km)
Ceiling: at least 12,000 feet AGL
Clouds: few clouds at 7000 feet AGL
scattered clouds at 30000 feet AGL
Weather: no significant weather observed at this time

METAR text: KRIC 191654Z 02007KT 350V050 10SM FEW070 FEW300 10/M07 A3046 RMK AO2 SLP322 T01001067
Conditions at: KRIC (RICHMOND , VA, US) observed 1654 UTC 19 March 2019
Temperature: 10.0°C (50°F)
Dewpoint: -6.7°C (20°F) [RH = 30%]
Pressure (altimeter): 30.46 inches Hg (1031.6 mb)
[Sea-level pressure: 1032.2 mb]
Winds: from the NNE (20 degrees) at 8 MPH (7 knots; 3.6 m/s)
Visibility: 10 or more miles (16+ km)
Ceiling: at least 12,000 feet AGL
Clouds: few clouds at 7000 feet AGL
few clouds at 30000 feet AGL
Weather: no significant weather observed at this time

METAR text: KRIC 191554Z 33008G16KT 280V360 10SM FEW065 SCT300 09/M07 A3047 RMK AO2 SLP324 T00891067
Conditions at: KRIC (RICHMOND , VA, US) observed 1554 UTC 19 March 2019
Temperature: 8.9°C (48°F)
Dewpoint: -6.7°C (20°F) [RH = 32%]
Pressure (altimeter): 30.47 inches Hg (1031.9 mb)
[Sea-level pressure: 1032.4 mb]
Winds: from the NNW (330 degrees) at 9 MPH (8 knots; 4.1 m/s)
gusting to 18 MPH (16 knots; 8.2 m/s)
Visibility: 10 or more miles (16+ km)
Ceiling: at least 12,000 feet AGL
Clouds: few clouds at 6500 feet AGL
scattered clouds at 30000 feet AGL
Weather: no significant weather observed at this time

METAR text: KRIC 191454Z VRB04KT 10SM SCT300 07/M02 A3048 RMK AO2 SLP328 T00721022 51015
Conditions at: KRIC (RICHMOND , VA, US) observed 1454 UTC 19 March 2019
Temperature: 7.2°C (45°F)
Dewpoint: -2.2°C (28°F) [RH = 51%]
Pressure (altimeter): 30.48 inches Hg (1032.3 mb)
[Sea-level pressure: 1032.8 mb]
Winds: variable direction winds at 5 MPH (4 knots; 2.1 m/s)
Visibility: 10 or more miles (16+ km)
Ceiling: at least 12,000 feet AGL
Clouds: scattered clouds at 30000 feet AGL
Weather: no significant weather observed at this time

METAR text: KRIC 191354Z 03008KT 10SM FEW018 FEW300 06/00 A3047 RMK AO2 SLP323 T00560000
Conditions at: KRIC (RICHMOND , VA, US) observed 1354 UTC 19 March 2019
Temperature: 5.6°C (42°F)
Dewpoint: 0.0°C (32°F) [RH = 67%]
Pressure (altimeter): 30.47 inches Hg (1031.9 mb)
[Sea-level pressure: 1032.3 mb]
Winds: from the NNE (30 degrees) at 9 MPH (8 knots; 4.1 m/s)
Visibility: 10 or more miles (16+ km)
Ceiling: at least 12,000 feet AGL
Clouds: few clouds at 1800 feet AGL
few clouds at 30000 feet AGL
Weather: no significant weather observed at this time

METAR text: KRIC 191254Z 03003KT 10SM FEW015 FEW300 02/01 A3046 RMK AO2 SLP319 T00220011
Conditions at: KRIC (RICHMOND , VA, US) observed 1254 UTC 19 March 2019
Temperature: 2.2°C (36°F)
Dewpoint: 1.1°C (34°F) [RH = 92%]
Pressure (altimeter): 30.46 inches Hg (1031.6 mb)
[Sea-level pressure: 1031.9 mb]
Winds: from the NNE (30 degrees) at 3 MPH (3 knots; 1.5 m/s)
Visibility: 10 or more miles (16+ km)
Ceiling: at least 12,000 feet AGL
Clouds: few clouds at 1500 feet AGL
few clouds at 30000 feet AGL
Weather: no significant weather observed at this time

METAR text: KRIC 191154Z 36003KT 4SM BR FEW300 M01/M03 A3044 RMK AO2 SLP314 70008 I1001 I6004 T10111028 10006 21033 51016
Conditions at: KRIC (RICHMOND , VA, US) observed 1154 UTC 19 March 2019
Temperature: -1.1°C (30°F)
Dewpoint: -2.8°C (27°F) [RH = 88%]
Pressure (altimeter): 30.44 inches Hg (1030.9 mb)
[Sea-level pressure: 1031.4 mb]
Winds: from the N (360 degrees) at 3 MPH (3 knots; 1.5 m/s)
Visibility: 4 miles ( 6 km)
Ceiling: at least 12,000 feet AGL
Clouds: few clouds at 30000 feet AGL
Weather: BR  (mist)

METAR text: KRIC 191114Z 34003KT 3SM BR FEW002 FEW300 M02/M03 A3043 RMK AO2 T10171033 $
Conditions at: KRIC (RICHMOND , VA, US) observed 1114 UTC 19 March 2019
Temperature: -1.7°C (29°F)
Dewpoint: -3.3°C (26°F) [RH = 89%]
Pressure (altimeter): 30.43 inches Hg (1030.6 mb)
Winds: from the NNW (340 degrees) at 3 MPH (3 knots; 1.5 m/s)
Visibility: 3 miles ( 5 km)
Ceiling: at least 12,000 feet AGL
Clouds: few clouds at 200 feet AGL
few clouds at 30000 feet AGL
Weather: BR  (mist)
SOME DATA ABOVE MAY BE INACCURATE!!!
"$" is an indication the sensor requires maintenance

METAR text: KRIC 191054Z 31003KT 1 1/2SM R34/3500VP6000FT BR FEW002 FEW300 M03/M05 A3043 RMK AO2 SLP310 T10281050 $
Conditions at: KRIC (RICHMOND , VA, US) observed 1054 UTC 19 March 2019
Temperature: -2.8°C (27°F)
Dewpoint: -5.0°C (23°F) [RH = 85%]
Pressure (altimeter): 30.43 inches Hg (1030.6 mb)
[Sea-level pressure: 1031.0 mb]
Winds: from the NW (310 degrees) at 3 MPH (3 knots; 1.5 m/s)
Visibility: 1.50 miles (2.41 km)
Ceiling: at least 12,000 feet AGL
Clouds: few clouds at 200 feet AGL
few clouds at 30000 feet AGL
Weather: BR  (mist)
SOME DATA ABOVE MAY BE INACCURATE!!!
"$" is an indication the sensor requires maintenance

METAR text: KRIC 191040Z 00000KT 1SM R34/1600V2600FT BR FEW003 M03/M05 A3042 RMK AO2 T10331050 $
Conditions at: KRIC (RICHMOND , VA, US) observed 1040 UTC 19 March 2019
Temperature: -3.3°C (26°F)
Dewpoint: -5.0°C (23°F) [RH = 88%]
Pressure (altimeter): 30.42 inches Hg (1030.2 mb)
Winds: calm
Visibility: 1.00 miles (1.61 km)
Ceiling: at least 12,000 feet AGL
Clouds: few clouds at 300 feet AGL
Weather: BR  (mist)
SOME DATA ABOVE MAY BE INACCURATE!!!
"$" is an indication the sensor requires maintenance

METAR text: KRIC 190954Z 00000KT 1/2SM R34/1000V1400FT FZFG FEW002 M03/M04 A3041 RMK AO2 SLP304 I1001 T10281044 $
Conditions at: KRIC (RICHMOND , VA, US) observed 0954 UTC 19 March 2019
Temperature: -2.8°C (27°F)
Dewpoint: -4.4°C (24°F) [RH = 89%]
Pressure (altimeter): 30.41 inches Hg (1029.9 mb)
[Sea-level pressure: 1030.4 mb]
Winds: calm
Visibility: 0.50 miles (0.80 km)
Ceiling: at least 12,000 feet AGL
Clouds: few clouds at 200 feet AGL
Weather: FZFG  (freezing fog)
SOME DATA ABOVE MAY BE INACCURATE!!!
"$" is an indication the sensor requires maintenance

METAR text: KRIC 190945Z 00000KT 1/2SM R34/1000V1200FT FZFG FEW002 M02/M04 A3041 RMK AO2 I1000 T10221039
Conditions at: KRIC (RICHMOND , VA, US) observed 0945 UTC 19 March 2019
Temperature: -2.2°C (28°F)
Dewpoint: -3.9°C (25°F) [RH = 88%]
Pressure (altimeter): 30.41 inches Hg (1029.9 mb)
Winds: calm
Visibility: 0.50 miles (0.80 km)
Ceiling: at least 12,000 feet AGL
Clouds: few clouds at 200 feet AGL
Weather: FZFG  (freezing fog)

METAR text: KRIC 190935Z 00000KT 1/2SM R34/1400V2400FT FZFG FEW002 M02/M04 A3040 RMK AO2 I1000 T10221039
Conditions at: KRIC (RICHMOND , VA, US) observed 0935 UTC 19 March 2019
Temperature: -2.2°C (28°F)
Dewpoint: -3.9°C (25°F) [RH = 88%]
Pressure (altimeter): 30.40 inches Hg (1029.5 mb)
Winds: calm
Visibility: 0.50 miles (0.80 km)
Ceiling: at least 12,000 feet AGL
Clouds: few clouds at 200 feet AGL
Weather: FZFG  (freezing fog)

METAR text: KRIC 190854Z 00000KT 1/2SM R34/1200V1800FT FZFG FEW002 M02/M04 A3039 RMK AO2 SLP298 I3002 T10221039 53002
Conditions at: KRIC (RICHMOND , VA, US) observed 0854 UTC 19 March 2019
Temperature: -2.2°C (28°F)
Dewpoint: -3.9°C (25°F) [RH = 88%]
Pressure (altimeter): 30.39 inches Hg (1029.2 mb)
[Sea-level pressure: 1029.8 mb]
Winds: calm
Visibility: 0.50 miles (0.80 km)
Ceiling: at least 12,000 feet AGL
Clouds: few clouds at 200 feet AGL
Weather: FZFG  (freezing fog)

METAR text: KRIC 190852Z 00000KT 1/2SM R34/1200V1800FT FZFG FEW002 M02/M04 A3039 RMK AO2
Conditions at: KRIC (RICHMOND , VA, US) observed 0852 UTC 19 March 2019
Temperature: -2.0°C (28°F)
Dewpoint: -4.0°C (25°F) [RH = 86%]
Pressure (altimeter): 30.39 inches Hg (1029.2 mb)
Winds: calm
Visibility: 0.50 miles (0.80 km)
Ceiling: at least 12,000 feet AGL
Clouds: few clouds at 200 feet AGL
Weather: FZFG  (freezing fog)

METAR text: KRIC 190839Z 00000KT 1/2SM R34/1600VP6000FT FZFG FEW002 M02/M03 A3039 RMK AO2 T10171033
Conditions at: KRIC (RICHMOND , VA, US) observed 0839 UTC 19 March 2019
Temperature: -1.7°C (29°F)
Dewpoint: -3.3°C (26°F) [RH = 89%]
Pressure (altimeter): 30.39 inches Hg (1029.2 mb)
Winds: calm
Visibility: 0.50 miles (0.80 km)
Ceiling: at least 12,000 feet AGL
Clouds: few clouds at 200 feet AGL
Weather: FZFG  (freezing fog)

METAR text: KRIC 190809Z 00000KT 1/2SM R34/0800V1600FT FZFG FEW002 M01/M03 A3038 RMK AO2 T10111028
Conditions at: KRIC (RICHMOND , VA, US) observed 0809 UTC 19 March 2019
Temperature: -1.1°C (30°F)
Dewpoint: -2.8°C (27°F) [RH = 88%]
Pressure (altimeter): 30.38 inches Hg (1028.9 mb)
Winds: calm
Visibility: 0.50 miles (0.80 km)
Ceiling: at least 12,000 feet AGL
Clouds: few clouds at 200 feet AGL
Weather: FZFG  (freezing fog)

METAR text: KRIC 190754Z 00000KT 1/2SM R34/1800V5500FT FZFG VV002 M01/M03 A3038 RMK AO2 SLP295 I1001 T10111033
Conditions at: KRIC (RICHMOND , VA, US) observed 0754 UTC 19 March 2019
Temperature: -1.1°C (30°F)
Dewpoint: -3.3°C (26°F) [RH = 85%]
Pressure (altimeter): 30.38 inches Hg (1028.9 mb)
[Sea-level pressure: 1029.5 mb]
Winds: calm
Visibility: 0.50 miles (0.80 km)
Ceiling: indefinite ceiling with vertical visibility of 200 feet AGL
Clouds: obscured sky
Weather: FZFG  (freezing fog)

METAR text: KRIC 190750Z 00000KT 1/2SM R34/1200V5500FT FZFG VV002 M01/M03 A3039 RMK AO2 I1000
Conditions at: KRIC (RICHMOND , VA, US) observed 0750 UTC 19 March 2019
Temperature: -1.0°C (30°F)
Dewpoint: -3.0°C (27°F) [RH = 86%]
Pressure (altimeter): 30.39 inches Hg (1029.2 mb)
Winds: calm
Visibility: 0.50 miles (0.80 km)
Ceiling: indefinite ceiling with vertical visibility of 200 feet AGL
Clouds: obscured sky
Weather: FZFG  (freezing fog)

METAR text: KRIC 190741Z 00000KT 1/2SM R34/1200V1600FT FZFG VV003 M01/M03 A3038 RMK AO2 I1000 T10061028
Conditions at: KRIC (RICHMOND , VA, US) observed 0741 UTC 19 March 2019
Temperature: -0.6°C (31°F)
Dewpoint: -2.8°C (27°F) [RH = 85%]
Pressure (altimeter): 30.38 inches Hg (1028.9 mb)
Winds: calm
Visibility: 0.50 miles (0.80 km)
Ceiling: indefinite ceiling with vertical visibility of 300 feet AGL
Clouds: obscured sky
Weather: FZFG  (freezing fog)

METAR text: KRIC 190735Z 00000KT 1/2SM R34/1200V2600FT FZFG CLR M01/M03 A3039 RMK AO2 I1000 T10061028
Conditions at: KRIC (RICHMOND , VA, US) observed 0735 UTC 19 March 2019
Temperature: -0.6°C (31°F)
Dewpoint: -2.8°C (27°F) [RH = 85%]
Pressure (altimeter): 30.39 inches Hg (1029.2 mb)
Winds: calm
Visibility: 0.50 miles (0.80 km)
Ceiling: at least 12,000 feet AGL
Clouds: sky clear below 12,000 feet AGL
Weather: FZFG  (freezing fog)

METAR text: KRIC 190728Z 00000KT 1/2SM R34/1400V2200FT FZFG CLR M01/M03 A3039 RMK AO2 T10061028
Conditions at: KRIC (RICHMOND , VA, US) observed 0728 UTC 19 March 2019
Temperature: -0.6°C (31°F)
Dewpoint: -2.8°C (27°F) [RH = 85%]
Pressure (altimeter): 30.39 inches Hg (1029.2 mb)
Winds: calm
Visibility: 0.50 miles (0.80 km)
Ceiling: at least 12,000 feet AGL
Clouds: sky clear below 12,000 feet AGL
Weather: FZFG  (freezing fog)

METAR text: KRIC 190654Z 00000KT 3/4SM R34/2400VP6000FT BR FEW002 M01/M02 A3039 RMK AO2 SLP295 I1001 T10061022
Conditions at: KRIC (RICHMOND , VA, US) observed 0654 UTC 19 March 2019
Temperature: -0.6°C (31°F)
Dewpoint: -2.2°C (28°F) [RH = 89%]
Pressure (altimeter): 30.39 inches Hg (1029.2 mb)
[Sea-level pressure: 1029.5 mb]
Winds: calm
Visibility: 0.75 miles (1.21 km)
Ceiling: at least 12,000 feet AGL
Clouds: few clouds at 200 feet AGL
Weather: BR  (mist)

METAR text: KRIC 190642Z 00000KT 3/4SM R34/1000V2800FT BR FEW002 M01/M02 A3038 RMK AO2 I1001 T10061017
Conditions at: KRIC (RICHMOND , VA, US) observed 0642 UTC 19 March 2019
Temperature: -0.6°C (31°F)
Dewpoint: -1.7°C (29°F) [RH = 92%]
Pressure (altimeter): 30.38 inches Hg (1028.9 mb)
Winds: calm
Visibility: 0.75 miles (1.21 km)
Ceiling: at least 12,000 feet AGL
Clouds: few clouds at 200 feet AGL
Weather: BR  (mist)

METAR text: KRIC 190636Z 00000KT 1SM R34/0800V1600FT BR CLR 00/M01 A3038 RMK AO2 I1001 T00001011
Conditions at: KRIC (RICHMOND , VA, US) observed 0636 UTC 19 March 2019
Temperature: 0.0°C (32°F)
Dewpoint: -1.1°C (30°F) [RH = 92%]
Pressure (altimeter): 30.38 inches Hg (1028.9 mb)
Winds: calm
Visibility: 1.00 miles (1.61 km)
Ceiling: at least 12,000 feet AGL
Clouds: sky clear below 12,000 feet AGL
Weather: BR  (mist)

METAR text: KRIC 190606Z 33003KT 1 3/4SM R34/1800VP6000FT BR CLR 00/M01 A3038 RMK AO2 I1000 T00001011
Conditions at: KRIC (RICHMOND , VA, US) observed 0606 UTC 19 March 2019
Temperature: 0.0°C (32°F)
Dewpoint: -1.1°C (30°F) [RH = 92%]
Pressure (altimeter): 30.38 inches Hg (1028.9 mb)
Winds: from the NNW (330 degrees) at 3 MPH (3 knots; 1.5 m/s)
Visibility: 1.75 miles (2.82 km)
Ceiling: at least 12,000 feet AGL
Clouds: sky clear below 12,000 feet AGL
Weather: BR  (mist)

METAR text: KRIC 190554Z 34003KT 2SM R34/3000VP6000FT BR CLR 01/M01 A3038 RMK AO2 SLP293 I6000 T00061011 10033 21006 51004
Conditions at: KRIC (RICHMOND , VA, US) observed 0554 UTC 19 March 2019
Temperature: 0.6°C (33°F)
Dewpoint: -1.1°C (30°F) [RH = 88%]
Pressure (altimeter): 30.38 inches Hg (1028.9 mb)
[Sea-level pressure: 1029.3 mb]
Winds: from the NNW (340 degrees) at 3 MPH (3 knots; 1.5 m/s)
Visibility: 2.00 miles (3.22 km)
Ceiling: at least 12,000 feet AGL
Clouds: sky clear below 12,000 feet AGL
Weather: BR  (mist)

METAR text: KRIC 190507Z 33004KT 2SM R34/1400V4500FT BR CLR M01/M02 A3038 RMK AO2 T10061017
Conditions at: KRIC (RICHMOND , VA, US) observed 0507 UTC 19 March 2019
Temperature: -0.6°C (31°F)
Dewpoint: -1.7°C (29°F) [RH = 92%]
Pressure (altimeter): 30.38 inches Hg (1028.9 mb)
Winds: from the NNW (330 degrees) at 5 MPH (4 knots; 2.1 m/s)
Visibility: 2.00 miles (3.22 km)
Ceiling: at least 12,000 feet AGL
Clouds: sky clear below 12,000 feet AGL
Weather: BR  (mist)

METAR text: KRIC 190454Z 34004KT 1SM R34/1000V1400FT BR CLR 01/M01 A3038 RMK AO2 SLP293 I1000 T00061011 401170000
Conditions at: KRIC (RICHMOND , VA, US) observed 0454 UTC 19 March 2019
Temperature: 0.6°C (33°F)
Dewpoint: -1.1°C (30°F) [RH = 88%]
Pressure (altimeter): 30.38 inches Hg (1028.9 mb)
[Sea-level pressure: 1029.3 mb]
Winds: from the NNW (340 degrees) at 5 MPH (4 knots; 2.1 m/s)
Visibility: 1.00 miles (1.61 km)
Ceiling: at least 12,000 feet AGL
Clouds: sky clear below 12,000 feet AGL
Weather: BR  (mist)

METAR text: KRIC 190443Z 00000KT 3/4SM R34/1200V1600FT BR FEW002 00/M02 A3038 RMK AO2 I1000 T00001017
Conditions at: KRIC (RICHMOND , VA, US) observed 0443 UTC 19 March 2019
Temperature: 0.0°C (32°F)
Dewpoint: -1.7°C (29°F) [RH = 88%]
Pressure (altimeter): 30.38 inches Hg (1028.9 mb)
Winds: calm
Visibility: 0.75 miles (1.21 km)
Ceiling: at least 12,000 feet AGL
Clouds: few clouds at 200 feet AGL
Weather: BR  (mist)

METAR text: KRIC 190427Z 00000KT 1SM R34/1600V2800FT BR FEW002 01/M01 A3038 RMK AO2 I1000 T00061006
Conditions at: KRIC (RICHMOND , VA, US) observed 0427 UTC 19 March 2019
Temperature: 0.6°C (33°F)
Dewpoint: -0.6°C (31°F) [RH = 92%]
Pressure (altimeter): 30.38 inches Hg (1028.9 mb)
Winds: calm
Visibility: 1.00 miles (1.61 km)
Ceiling: at least 12,000 feet AGL
Clouds: few clouds at 200 feet AGL
Weather: BR  (mist)

METAR text: KRIC 190416Z 00000KT 3/4SM R34/1200V2400FT BR FEW002 01/M01 A3038 RMK AO2 T00061011
Conditions at: KRIC (RICHMOND , VA, US) observed 0416 UTC 19 March 2019
Temperature: 0.6°C (33°F)
Dewpoint: -1.1°C (30°F) [RH = 88%]
Pressure (altimeter): 30.38 inches Hg (1028.9 mb)
Winds: calm
Visibility: 0.75 miles (1.21 km)
Ceiling: at least 12,000 feet AGL
Clouds: few clouds at 200 feet AGL
Weather: BR  (mist)

METAR text: KRIC 190354Z 00000KT 1/4SM R34/1200V1400FT FG FEW002 FEW120 01/M01 A3038 RMK AO2 SLP293 I1000 T00061011
Conditions at: KRIC (RICHMOND , VA, US) observed 0354 UTC 19 March 2019
Temperature: 0.6°C (33°F)
Dewpoint: -1.1°C (30°F) [RH = 88%]
Pressure (altimeter): 30.38 inches Hg (1028.9 mb)
[Sea-level pressure: 1029.3 mb]
Winds: calm
Visibility: 0.25 miles (0.40 km)
Ceiling: at least 12,000 feet AGL
Clouds: few clouds at 200 feet AGL
few clouds at 12000 feet AGL
Weather: FG  (fog)

METAR text: KRIC 190345Z 00000KT 3/4SM R34/1400V2000FT BR FEW002 FEW120 01/M01 A3038 RMK AO2 I1000 T00061011
Conditions at: KRIC (RICHMOND , VA, US) observed 0345 UTC 19 March 2019
Temperature: 0.6°C (33°F)
Dewpoint: -1.1°C (30°F) [RH = 88%]
Pressure (altimeter): 30.38 inches Hg (1028.9 mb)
Winds: calm
Visibility: 0.75 miles (1.21 km)
Ceiling: at least 12,000 feet AGL
Clouds: few clouds at 200 feet AGL
few clouds at 12000 feet AGL
Weather: BR  (mist)

Forecast for: KRIC (RICHMOND , VA, US)
Text: KRIC 201127Z 2012/2112 07004KT P6SM FEW070 BKN250
Forecast period: 1200 to 1800 UTC 20 March 2019
Forecast type: FROM: standard forecast or significant change
Winds: from the ENE (70 degrees) at 5 MPH (4 knots; 2.1 m/s)
Visibility: 6 or more miles 10+ km)
Ceiling: 25000 feet AGL
Clouds: few clouds at 7000 feet AGL
broken clouds at 25000 feet AGL
Weather: no significant weather forecast for this period
Text: FM201800 12007KT P6SM BKN070
Forecast period: 1800 to 2100 UTC 20 March 2019
Forecast type: FROM: standard forecast or significant change
Winds: from the ESE (120 degrees) at 8 MPH (7 knots; 3.6 m/s)
Visibility: 6 or more miles 10+ km)
Ceiling: 7000 feet AGL
Clouds: broken clouds at 7000 feet AGL
Weather: no significant weather forecast for this period
Text: FM202100 10006KT P6SM VCSH OVC040
Forecast period: 2100 UTC 20 March 2019 to 0000 UTC 21 March 2019
Forecast type: FROM: standard forecast or significant change
Winds: from the E (100 degrees) at 7 MPH (6 knots; 3.1 m/s)
Visibility: 6 or more miles 10+ km)
Ceiling: 4000 feet AGL
Clouds: overcast cloud deck at 4000 feet AGL
Weather: VCSH  (showers in vicinity)
Text: FM210000 08005KT 5SM -RA OVC025
Forecast period: 0000 to 0200 UTC 21 March 2019
Forecast type: FROM: standard forecast or significant change
Winds: from the E (80 degrees) at 6 MPH (5 knots; 2.6 m/s)
Visibility: 5 miles (8 km)
Ceiling: 2500 feet AGL
Clouds: overcast cloud deck at 2500 feet AGL
Weather: -RA  (light rain)
Text: FM210200 05005KT 3SM RA BR OVC015
Forecast period: 0200 to 0500 UTC 21 March 2019
Forecast type: FROM: standard forecast or significant change
Winds: from the NE (50 degrees) at 6 MPH (5 knots; 2.6 m/s)
Visibility: 3 miles (5 km)
Ceiling: 1500 feet AGL
Clouds: overcast cloud deck at 1500 feet AGL
Weather: RA BR  (moderate rain, mist)
Text: FM210500 06005KT 2SM RA BR OVC009
Forecast period: 0500 to 1200 UTC 21 March 2019
Forecast type: FROM: standard forecast or significant change
Winds: from the ENE (60 degrees) at 6 MPH (5 knots; 2.6 m/s)
Visibility: 2.00 miles (3.22 km)
Ceiling: 900 feet AGL
Clouds: overcast cloud deck at 900 feet AGL
Weather: RA BR  (moderate rain, mist)